Time;durP1;ratioP1;P1;durP2;ratioP2;P2;SDS_P1;SDS_P2;PMS_P1;PMS_P2;Temp;Humidity;BMP_temperature;BMP_pressure;BME280_temperature;BME280_humidity;BME280_pressure;Samples;Min_cycle;Max_cycle;Signal;HPM_P1;HPM_P2
2023/06/18 00:01:28;;;;;;;;;;;;;;;22.03;56.29;100918.78;4985271;28;4170;-62
2023/06/18 00:03:55;;;;;;;;;;;;;;;22.03;56.36;100920.94;4984535;28;4219;-61
2023/06/18 00:06:21;;;;;;;;;;;;;;;22.03;56.25;100921.69;4987097;28;4274;-62
2023/06/18 00:08:48;;;;;;;;;;;;;;;22.03;56.37;100915.91;4989181;28;4689;-62
2023/06/18 00:11:14;;;;;;;;;;;;;;;22.03;56.27;100915.19;4990515;28;3992;-62
2023/06/18 00:13:41;;;;;;;;;;;;;;;22.03;56.03;100918.78;4988531;28;4285;-62
2023/06/18 00:16:07;;;;;;;;;;;;;;;22.04;55.96;100913.78;4987665;28;4161;-61
2023/06/18 00:18:34;;;;;;;;;;;;;;;22.04;56.15;100916.69;4987458;28;4213;-62
2023/06/18 00:21:07;;;;;;;;;;;;;;;22.03;56.25;100921.69;4987281;28;4143;-62
2023/06/18 00:23:34;;;;;;;;;;;;;;;22.04;56.11;100917.41;4985210;28;4150;-62
2023/06/18 00:26:00;;;;;;;;;;;;;;;22.04;56.16;100917.41;4999956;28;4022;-61
2023/06/18 00:28:28;;;;;;;;;;;;;;;22.03;55.86;100907.25;4990640;28;4128;-62
2023/06/18 00:30:55;;;;;;;;;;;;;;;22.03;55.81;100904.38;4986299;28;3976;-61
2023/06/18 00:33:22;;;;;;;;;;;;;;;22.04;56.06;100899.38;5000553;28;4286;-62
2023/06/18 00:35:48;;;;;;;;;;;;;;;22.03;55.93;100898.63;4985113;28;4199;-62
2023/06/18 00:38:16;;;;;;;;;;;;;;;22.03;55.91;100904.38;4983803;28;4131;-62
2023/06/18 00:40:43;;;;;;;;;;;;;;;22.02;55.94;100908.69;4985341;28;4056;-62
2023/06/18 00:43:10;;;;;;;;;;;;;;;22.01;55.71;100895.66;4988958;28;4152;-62
2023/06/18 00:45:37;;;;;;;;;;;;;;;22.00;55.58;100905.72;4986101;28;4212;-62
2023/06/18 00:48:03;;;;;;;;;;;;;;;22.00;55.73;100905.72;4987749;28;4135;-62
2023/06/18 00:50:32;;;;;;;;;;;;;;;21.96;56.04;100906.28;4982985;28;4007;-62
2023/06/18 00:53:01;;;;;;;;;;;;;;;21.94;55.89;100911.97;4978636;28;4350;-61
2023/06/18 00:55:27;;;;;;;;;;;;;;;21.95;56.17;100909.84;4987442;28;4050;-62
2023/06/18 00:57:59;;;;;;;;;;;;;;;21.94;56.06;100914.09;5005486;28;4185;-61
2023/06/18 01:00:28;;;;;;;;;;;;;;;21.94;56.09;100911.22;5001161;28;4309;-62
2023/06/18 01:02:55;;;;;;;;;;;;;;;21.94;56.02;100914.09;5001940;28;4490;-62
2023/06/18 01:05:23;;;;;;;;;;;;;;;21.94;56.03;100914.09;5002605;28;4466;-62
2023/06/18 01:07:49;;;;;;;;;;;;;;;21.94;55.75;100908.34;4993782;28;4207;-61
2023/06/18 01:10:16;;;;;;;;;;;;;;;21.95;56.11;100906.94;4985599;28;4282;-62
2023/06/18 01:12:48;;;;;;;;;;;;;;;21.94;56.06;100908.34;4986726;28;4170;-62
2023/06/18 01:15:15;;;;;;;;;;;;;;;21.94;56.04;100911.22;4998412;28;4236;-62
2023/06/18 01:17:46;;;;;;;;;;;;;;;21.95;55.78;100921.38;4987442;28;4157;-62
2023/06/18 01:20:12;;;;;;;;;;;;;;;21.95;55.59;100909.84;4988949;28;5293;-62
2023/06/18 01:22:41;;;;;;;;;;;;;;;21.95;55.68;100909.84;4982745;28;4092;-62
2023/06/18 01:25:07;;;;;;;;;;;;;;;21.94;55.62;100908.34;4987732;28;3879;-62
2023/06/18 01:27:37;;;;;;;;;;;;;;;21.95;55.58;100915.59;4981861;28;4207;-62
2023/06/18 01:30:03;;;;;;;;;;;;;;;21.95;55.65;100909.84;4997113;28;4122;-62
2023/06/18 01:32:30;;;;;;;;;;;;;;;21.94;55.87;100911.97;4986535;28;4057;-62
2023/06/18 01:34:56;;;;;;;;;;;;;;;21.94;55.74;100914.09;4984833;28;4177;-61
2023/06/18 01:37:55;;;;;;;;;;;;;;;21.96;55.71;100911.31;4989814;28;4197;-62
2023/06/18 01:40:31;;;;;;;;;;;;;;;22.00;55.60;100911.47;4951974;28;4460;-62
2023/06/18 01:43:11;;;;;;;;;;;;;;;21.96;55.47;100912.03;4982510;28;4151;-62
2023/06/18 01:45:48;;;;;;;;;;;;;;;21.95;55.53;100909.84;4999760;28;4450;-62
2023/06/18 01:48:15;;;;;;;;;;;;;;;21.95;55.52;100912.72;4984182;28;4252;-62
2023/06/18 01:50:42;;;;;;;;;;;;;;;21.95;55.58;100918.47;5001415;28;4863;-62
2023/06/18 01:53:09;;;;;;;;;;;;;;;21.95;55.37;100919.22;4984139;28;4174;-62
2023/06/18 01:55:37;;;;;;;;;;;;;;;21.95;55.52;100918.47;5001598;28;4467;-62
2023/06/18 01:58:04;;;;;;;;;;;;;;;21.94;55.32;100931.41;4984835;28;4033;-61
2023/06/18 02:00:31;;;;;;;;;;;;;;;21.95;55.34;100927.13;4999638;28;4032;-62
2023/06/18 02:02:58;;;;;;;;;;;;;;;21.94;55.31;100925.63;4982054;28;4214;-61
2023/06/18 02:05:25;;;;;;;;;;;;;;;21.94;55.48;100932.16;4984033;28;4471;-62
2023/06/18 02:07:52;;;;;;;;;;;;;;;21.93;55.52;100936.44;4985710;28;4545;-61
2023/06/18 02:10:18;;;;;;;;;;;;;;;21.93;55.21;100932.81;5000788;28;4148;-62
2023/06/18 02:12:45;;;;;;;;;;;;;;;21.94;55.56;100940.06;4984134;28;4140;-62
2023/06/18 02:15:12;;;;;;;;;;;;;;;21.94;55.31;100948.69;4983640;28;5311;-62
2023/06/18 02:17:38;;;;;;;;;;;;;;;21.93;55.34;100944.34;5001681;28;4117;-62
2023/06/18 02:20:06;;;;;;;;;;;;;;;21.94;55.13;100942.94;4987680;28;4087;-62
2023/06/18 02:22:33;;;;;;;;;;;;;;;21.94;55.27;100942.94;4984379;28;4140;-62
2023/06/18 02:25:00;;;;;;;;;;;;;;;21.93;55.47;100947.97;4983171;28;4157;-62
2023/06/18 02:27:26;;;;;;;;;;;;;;;21.93;55.43;100947.97;4999909;28;4152;-62
2023/06/18 02:29:53;;;;;;;;;;;;;;;21.92;55.31;100940.72;4984359;28;4213;-61
2023/06/18 02:32:19;;;;;;;;;;;;;;;21.92;55.21;100934.97;4987219;28;4303;-61
2023/06/18 02:34:46;;;;;;;;;;;;;;;21.92;55.08;100932.06;4982889;28;4350;-62
2023/06/18 02:37:13;;;;;;;;;;;;;;;21.93;55.03;100929.94;4986640;28;4165;-62
2023/06/18 02:39:39;;;;;;;;;;;;;;;21.91;55.06;100932.72;4985999;28;3970;-62
2023/06/18 02:42:09;;;;;;;;;;;;;;;21.93;55.12;100938.59;4991097;28;4046;-62
2023/06/18 02:44:36;;;;;;;;;;;;;;;21.92;55.25;100928.44;4984527;28;4030;-62
2023/06/18 02:47:03;;;;;;;;;;;;;;;21.92;55.01;100922.66;4982783;28;4322;-62
2023/06/18 02:49:30;;;;;;;;;;;;;;;21.91;55.23;100924.81;4991687;28;4074;-62
2023/06/18 02:51:57;;;;;;;;;;;;;;;21.92;55.04;100925.53;4988092;28;4123;-61
2023/06/18 02:54:23;;;;;;;;;;;;;;;21.91;55.10;100921.94;4999963;28;4794;-62
2023/06/18 02:56:50;;;;;;;;;;;;;;;21.90;55.36;100926.22;4984799;28;4485;-62
2023/06/18 02:59:17;;;;;;;;;;;;;;;21.91;55.14;100918.31;4982746;28;4464;-62
2023/06/18 03:01:45;;;;;;;;;;;;;;;21.91;55.11;100926.97;4999310;28;4039;-61
2023/06/18 03:04:12;;;;;;;;;;;;;;;21.91;54.98;100924.06;4996740;28;4659;-61
2023/06/18 03:06:38;;;;;;;;;;;;;;;21.91;55.15;100926.97;4993121;28;4019;-62
2023/06/18 03:09:05;;;;;;;;;;;;;;;21.91;54.88;100929.84;4983752;28;3973;-61
2023/06/18 03:11:31;;;;;;;;;;;;;;;21.91;55.05;100924.06;5003798;28;4050;-62
2023/06/18 03:13:59;;;;;;;;;;;;;;;21.90;55.05;100923.34;4989076;28;4246;-62
2023/06/18 03:16:26;;;;;;;;;;;;;;;21.91;55.11;100935.59;4997127;28;4075;-62
2023/06/18 03:18:54;;;;;;;;;;;;;;;21.90;55.14;100925.50;4985334;28;4024;-62
2023/06/18 03:21:22;;;;;;;;;;;;;;;21.90;54.98;100931.25;5003126;28;4055;-63
2023/06/18 03:23:49;;;;;;;;;;;;;;;21.90;54.78;100928.38;4979058;28;4480;-61
2023/06/18 03:26:16;;;;;;;;;;;;;;;21.90;54.90;100925.50;4980689;28;4215;-61
2023/06/18 03:28:43;;;;;;;;;;;;;;;21.88;54.67;100923.25;4999534;28;4098;-62
2023/06/18 03:31:09;;;;;;;;;;;;;;;21.84;55.11;100931.00;4983712;28;4141;-60
2023/06/18 03:33:35;;;;;;;;;;;;;;;21.95;54.74;100945.16;5000050;28;4938;-60
2023/06/18 03:36:02;;;;;;;;;;;;;;;21.95;54.73;100933.63;5002657;28;4309;-60
2023/06/18 03:38:32;;;;;;;;;;;;;;;21.93;54.57;100929.94;4990058;28;4180;-60
2023/06/18 03:41:02;;;;;;;;;;;;;;;21.93;54.83;100935.69;4997787;28;4129;-60
2023/06/18 03:43:29;;;;;;;;;;;;;;;21.91;54.48;100932.72;5007149;28;4427;-60
2023/06/18 03:45:55;;;;;;;;;;;;;;;21.90;54.86;100943.53;4986915;28;3970;-60
2023/06/18 03:48:22;;;;;;;;;;;;;;;21.89;54.89;100930.50;4986706;28;4019;-60
2023/06/18 03:50:48;;;;;;;;;;;;;;;21.89;54.81;100941.28;5009901;28;4239;-60
2023/06/18 03:53:15;;;;;;;;;;;;;;;21.89;54.65;100938.41;4991942;28;4150;-60
2023/06/18 03:55:41;;;;;;;;;;;;;;;21.88;54.89;100942.69;5002302;28;4013;-60
2023/06/18 03:58:11;;;;;;;;;;;;;;;21.87;54.68;100941.19;4984100;28;4107;-60
2023/06/18 04:00:38;;;;;;;;;;;;;;;21.86;54.78;100946.22;5000529;28;4052;-61
2023/06/18 04:03:06;;;;;;;;;;;;;;;21.87;55.01;100944.09;4996940;28;4114;-60
2023/06/18 04:05:33;;;;;;;;;;;;;;;21.88;54.87;100945.59;4984765;28;4186;-61
2023/06/18 04:07:59;;;;;;;;;;;;;;;21.87;54.67;100938.31;5002274;28;4095;-60
2023/06/18 04:10:26;;;;;;;;;;;;;;;21.85;54.67;100936.13;4993623;28;4479;-61
2023/06/18 04:12:52;;;;;;;;;;;;;;;21.85;54.76;100941.13;5001479;28;4115;-60
2023/06/18 04:15:19;;;;;;;;;;;;;;;21.85;54.94;100947.66;4988196;28;5129;-61
2023/06/18 04:17:45;;;;;;;;;;;;;;;21.86;54.89;100942.63;4987403;28;4454;-61
2023/06/18 04:20:13;;;;;;;;;;;;;;;21.86;54.75;100943.34;4987909;28;4114;-61
2023/06/18 04:22:40;;;;;;;;;;;;;;;21.86;54.92;100954.16;4988629;28;4380;-60
2023/06/18 04:25:09;;;;;;;;;;;;;;;21.84;54.85;100951.91;4989522;28;4349;-60
2023/06/18 04:27:36;;;;;;;;;;;;;;;21.86;54.78;100954.88;4989517;28;4261;-60
2023/06/18 04:30:03;;;;;;;;;;;;;;;21.84;54.75;100949.03;4987824;28;4107;-60
2023/06/18 04:32:29;;;;;;;;;;;;;;;21.85;54.78;100949.75;5003861;28;4191;-60
2023/06/18 04:34:57;;;;;;;;;;;;;;;21.87;54.78;100949.84;4987842;28;4324;-60
2023/06/18 04:37:25;;;;;;;;;;;;;;;21.85;54.92;100941.13;5004247;28;4113;-61
2023/06/18 04:39:52;;;;;;;;;;;;;;;21.86;54.66;100954.16;5002702;28;4072;-61
2023/06/18 04:42:18;;;;;;;;;;;;;;;21.85;54.70;100946.88;4987475;28;4413;-60
2023/06/18 04:44:46;;;;;;;;;;;;;;;21.87;54.81;100946.97;4988106;28;4117;-59
2023/06/18 04:47:12;;;;;;;;;;;;;;;21.87;54.68;100941.19;5004018;28;4022;-59
2023/06/18 04:49:39;;;;;;;;;;;;;;;21.88;54.87;100945.59;4984046;28;4114;-59
2023/06/18 04:52:07;;;;;;;;;;;;;;;21.87;54.76;100938.31;4984535;28;4214;-61
2023/06/18 04:54:35;;;;;;;;;;;;;;;21.85;54.68;100941.13;5001730;28;4086;-61
2023/06/18 04:57:02;;;;;;;;;;;;;;;21.85;54.71;100946.88;4988161;28;4141;-61
2023/06/18 04:59:28;;;;;;;;;;;;;;;21.85;54.67;100952.66;4984861;28;4478;-61
2023/06/18 05:01:55;;;;;;;;;;;;;;;21.87;54.64;100953.47;4985339;28;4167;-61
2023/06/18 05:04:22;;;;;;;;;;;;;;;21.87;54.83;100946.97;4989937;28;4667;-60
2023/06/18 05:06:49;;;;;;;;;;;;;;;21.87;54.87;100955.63;5009065;28;4502;-61
2023/06/18 05:09:15;;;;;;;;;;;;;;;21.87;54.73;100949.84;5001679;28;4111;-60
2023/06/18 05:11:42;;;;;;;;;;;;;;;21.87;54.90;100950.59;4984868;28;4328;-61
2023/06/18 05:14:08;;;;;;;;;;;;;;;21.87;54.75;100944.81;4982887;28;4130;-60
2023/06/18 05:16:35;;;;;;;;;;;;;;;21.87;54.91;100950.59;5002382;28;4089;-60
2023/06/18 05:19:03;;;;;;;;;;;;;;;21.85;54.81;100938.22;5000656;28;4355;-61
2023/06/18 05:21:30;;;;;;;;;;;;;;;21.85;54.77;100944.00;5001261;28;4173;-60
2023/06/18 05:23:56;;;;;;;;;;;;;;;21.89;54.96;100955.69;5002293;28;4088;-60
2023/06/18 05:26:23;;;;;;;;;;;;;;;21.88;54.97;100957.84;4986203;28;4188;-60
2023/06/18 05:28:50;;;;;;;;;;;;;;;21.89;54.68;100964.34;5001926;28;4015;-61
2023/06/18 05:31:17;;;;;;;;;;;;;;;21.88;54.93;100962.88;4983744;28;4403;-61
2023/06/18 05:33:45;;;;;;;;;;;;;;;21.89;54.92;100964.34;5001750;28;4201;-65
2023/06/18 05:36:11;;;;;;;;;;;;;;;21.88;54.76;100963.63;4983512;28;4122;-70
2023/06/18 05:38:38;;;;;;;;;;;;;;;21.89;54.97;100958.59;5002009;28;4576;-69
2023/06/18 05:41:04;;;;;;;;;;;;;;;21.88;54.78;100952.09;5002701;28;4276;-70
2023/06/18 05:43:31;;;;;;;;;;;;;;;21.89;55.07;100953.56;4987419;28;4146;-70
2023/06/18 05:46:00;;;;;;;;;;;;;;;21.90;54.74;100960.09;4997302;28;4128;-70
2023/06/18 05:48:26;;;;;;;;;;;;;;;21.90;54.82;100969.47;4987323;28;4426;-70
2023/06/18 05:51:07;;;;;;;;;;;;;;;21.90;54.84;100981.00;4987298;28;4134;-70
2023/06/18 05:53:34;;;;;;;;;;;;;;;21.90;54.93;100971.63;5003812;28;4156;-70
2023/06/18 05:56:00;;;;;;;;;;;;;;;21.90;54.98;100977.38;4983027;28;4127;-70
2023/06/18 05:58:27;;;;;;;;;;;;;;;21.90;54.93;100977.38;4980363;28;4251;-70
2023/06/18 06:00:53;;;;;;;;;;;;;;;21.90;55.09;100983.16;5001444;28;4139;-70
2023/06/18 06:03:20;;;;;;;;;;;;;;;21.90;54.69;100977.38;4981899;28;4095;-70
2023/06/18 06:05:46;;;;;;;;;;;;;;;21.91;55.11;100970.22;4986492;28;4139;-70
2023/06/18 06:08:13;;;;;;;;;;;;;;;21.89;54.97;100970.13;4980224;28;4138;-69
2023/06/18 06:10:44;;;;;;;;;;;;;;;21.91;54.76;100981.75;4982357;28;4314;-68
2023/06/18 06:13:10;;;;;;;;;;;;;;;21.91;54.93;100981.75;4991520;28;4279;-70
2023/06/18 06:15:39;;;;;;;;;;;;;;;21.90;54.95;100989.66;4981159;28;4304;-70
2023/06/18 06:18:06;;;;;;;;;;;;;;;21.92;54.77;100991.84;5004339;28;4146;-70
2023/06/18 06:20:32;;;;;;;;;;;;;;;21.91;54.74;100999.78;5003098;28;4042;-70
2023/06/18 06:22:59;;;;;;;;;;;;;;;21.91;54.77;100993.28;4982977;28;3945;-70
2023/06/18 06:25:26;;;;;;;;;;;;;;;21.92;54.69;100991.84;5000608;28;4034;-68
2023/06/18 06:27:52;;;;;;;;;;;;;;;21.91;54.59;101004.81;4980606;28;4113;-70
2023/06/18 06:30:18;;;;;;;;;;;;;;;21.92;54.69;101003.38;4981362;28;4381;-69
2023/06/18 06:32:46;;;;;;;;;;;;;;;21.92;55.03;101006.28;4996757;28;4578;-70
2023/06/18 06:35:13;;;;;;;;;;;;;;;21.92;55.05;101009.16;4984976;28;4036;-70
2023/06/18 06:37:40;;;;;;;;;;;;;;;21.92;54.93;101004.16;4998095;28;4106;-69
2023/06/18 06:40:07;;;;;;;;;;;;;;;21.93;54.72;100999.13;4976956;28;4236;-70
2023/06/18 06:42:36;;;;;;;;;;;;;;;21.93;54.57;101004.88;4998401;28;4100;-70
2023/06/18 06:45:24;;;;;;;;;;;;;;;21.92;54.64;101009.16;5001270;28;4132;-69
2023/06/18 06:48:04;;;;;;;;;;;;;;;21.92;54.60;101012.03;4983512;28;4127;-70
2023/06/18 06:50:52;;;;;;;;;;;;;;;21.93;54.83;101005.63;4969685;28;4367;-69
2023/06/18 06:53:34;;;;;;;;;;;;;;;21.93;54.85;101004.88;4988918;28;4146;-70
2023/06/18 06:56:00;;;;;;;;;;;;;;;21.93;54.98;101002.00;4994803;28;4120;-69
2023/06/18 06:58:28;;;;;;;;;;;;;;;21.93;54.74;101002.00;4996442;28;4304;-70
2023/06/18 07:00:54;;;;;;;;;;;;;;;21.94;54.88;101009.25;4984246;28;4142;-70
2023/06/18 07:03:21;;;;;;;;;;;;;;;21.94;54.74;101012.13;4982978;28;4182;-69
2023/06/18 07:05:47;;;;;;;;;;;;;;;21.94;54.81;101009.25;4990970;28;4039;-70
2023/06/18 07:08:14;;;;;;;;;;;;;;;21.94;54.72;101007.13;4983627;28;4048;-70
2023/06/18 07:10:40;;;;;;;;;;;;;;;21.97;54.95;101005.06;4986702;28;4162;-67
2023/06/18 07:13:06;;;;;;;;;;;;;;;21.92;57.00;101009.91;4987971;28;4021;-69
2023/06/18 07:15:33;;;;;;;;;;;;;;;21.81;57.60;100996.47;4988173;28;4246;-68
2023/06/18 07:17:59;;;;;;;;;;;;;;;21.77;58.94;100998.44;4992821;28;4135;-68
2023/06/18 07:20:26;;;;;;;;;;;;;;;21.65;59.17;100990.75;4985927;28;4034;-68
2023/06/18 07:22:52;;;;;;;;;;;;;;;21.71;59.31;100991.00;4987183;28;3968;-68
2023/06/18 07:25:19;;;;;;;;;;;;;;;21.69;59.05;100988.06;4988822;28;4037;-68
2023/06/18 07:27:45;;;;;;;;;;;;;;;21.66;59.58;100983.56;4984013;28;4090;-68
2023/06/18 07:30:12;;;;;;;;;;;;;;;21.52;59.49;100997.38;4982843;28;4121;-70
2023/06/18 07:32:38;;;;;;;;;;;;;;;21.67;58.60;100990.06;4984025;28;4566;-70
2023/06/18 07:35:05;;;;;;;;;;;;;;;21.57;58.60;100984.63;4986287;28;4316;-70
2023/06/18 07:37:32;;;;;;;;;;;;;;;21.65;58.31;100987.13;4991202;28;4132;-70
2023/06/18 07:39:58;;;;;;;;;;;;;;;21.47;58.88;100981.31;4986992;28;4119;-70
2023/06/18 07:42:25;;;;;;;;;;;;;;;21.49;59.08;100987.16;4990601;28;4166;-69
2023/06/18 07:44:52;;;;;;;;;;;;;;;21.65;58.36;100982.09;4989367;28;4113;-69
2023/06/18 07:47:19;;;;;;;;;;;;;;;21.75;58.05;100987.56;4984149;28;4157;-69
2023/06/18 07:49:45;;;;;;;;;;;;;;;21.80;58.28;100994.25;4983272;28;4019;-69
2023/06/18 07:52:12;;;;;;;;;;;;;;;21.74;58.87;100994.72;4984398;28;4232;-69
2023/06/18 07:54:38;;;;;;;;;;;;;;;21.75;58.80;101008.47;4986927;28;4031;-69
2023/06/18 07:57:05;;;;;;;;;;;;;;;21.66;59.00;101005.91;4986522;28;4059;-69
2023/06/18 07:59:31;;;;;;;;;;;;;;;21.80;58.31;101000.00;4986685;28;4128;-69
2023/06/18 08:01:57;;;;;;;;;;;;;;;21.85;58.07;101007.41;4983453;28;4258;-69
2023/06/18 08:04:24;;;;;;;;;;;;;;;21.92;57.53;100997.63;4989419;28;4179;-69
2023/06/18 08:06:50;;;;;;;;;;;;;;;21.90;57.73;100997.56;4985589;28;4237;-69
2023/06/18 08:09:17;;;;;;;;;;;;;;;21.93;57.60;100999.13;4984754;28;4054;-69
2023/06/18 08:11:43;;;;;;;;;;;;;;;21.93;57.58;100999.13;4988559;28;4382;-69
2023/06/18 08:14:10;;;;;;;;;;;;;;;21.93;57.04;100994.09;4988545;28;4095;-69
2023/06/18 08:16:37;;;;;;;;;;;;;;;21.97;57.13;100993.53;4989512;28;3971;-69
2023/06/18 08:19:04;;;;;;;;;;;;;;;21.93;57.43;100999.13;4986405;28;4111;-69
2023/06/18 08:21:30;;;;;;;;;;;;;;;21.99;57.29;101002.28;4986171;28;4073;-69
2023/06/18 08:23:57;;;;;;;;;;;;;;;21.99;57.45;100993.63;4987620;28;4553;-69
2023/06/18 08:26:23;;;;;;;;;;;;;;;22.05;57.17;100993.84;5001524;28;3935;-69
2023/06/18 08:28:50;;;;;;;;;;;;;;;21.98;57.20;100988.50;4987901;28;4159;-68
2023/06/18 08:31:17;;;;;;;;;;;;;;;22.04;57.81;100986.63;4985580;28;4062;-69
2023/06/18 08:33:43;;;;;;;;;;;;;;;22.02;58.07;100986.53;4983636;28;4030;-68
2023/06/18 08:36:09;;;;;;;;;;;;;;;22.06;57.62;100989.59;4988359;28;4122;-68
2023/06/18 08:38:36;;;;;;;;;;;;;;;22.13;57.56;100985.56;4987521;28;4034;-68
2023/06/18 08:41:02;;;;;;;;;;;;;;;22.04;58.18;100988.75;4991292;28;5418;-68
2023/06/18 08:43:32;;;;;;;;;;;;;;;22.00;58.18;100989.31;4985397;28;3972;-68
2023/06/18 08:46:20;;;;;;;;;;;;;;;22.09;58.20;100996.19;4985955;28;4483;-68
2023/06/18 08:48:52;;;;;;;;;;;;;;;21.95;58.68;100990.56;4987480;28;4161;-68
2023/06/18 08:51:18;;;;;;;;;;;;;;;21.99;58.15;100990.75;5000825;28;4202;-68
2023/06/18 08:53:45;;;;;;;;;;;;;;;22.04;58.93;100992.38;5002361;28;4253;-69
2023/06/18 08:56:13;;;;;;;;;;;;;;;21.93;58.70;100999.88;4985775;28;4398;-68
2023/06/18 08:58:45;;;;;;;;;;;;;;;22.03;58.85;100990.88;4986075;28;4093;-68
2023/06/18 09:01:12;;;;;;;;;;;;;;;22.04;58.85;100997.41;4994701;28;4147;-68
2023/06/18 09:03:38;;;;;;;;;;;;;;;22.05;57.76;100996.75;4982841;28;4079;-68
2023/06/18 09:06:05;;;;;;;;;;;;;;;22.09;57.43;100987.53;4982570;28;4276;-68
2023/06/18 09:08:31;;;;;;;;;;;;;;;22.00;57.98;100986.44;4986034;28;4340;-68
2023/06/18 09:10:57;;;;;;;;;;;;;;;21.98;56.08;100989.25;4984600;28;3988;-69
2023/06/18 09:13:24;;;;;;;;;;;;;;;22.01;55.87;100993.69;4983564;28;4058;-69
2023/06/18 09:15:50;;;;;;;;;;;;;;;21.99;54.86;100996.50;4983418;28;4232;-68
2023/06/18 09:18:17;;;;;;;;;;;;;;;22.05;55.22;100988.09;4984087;28;4640;-68
2023/06/18 09:20:43;;;;;;;;;;;;;;;22.12;55.57;100989.81;4984459;28;4008;-70
2023/06/18 09:23:10;;;;;;;;;;;;;;;22.05;54.34;100999.63;5002311;28;4166;-74
2023/06/18 09:25:36;;;;;;;;;;;;;;;22.22;54.65;100995.31;4989250;28;4406;-70
2023/06/18 09:28:03;;;;;;;;;;;;;;;22.36;54.56;100986.50;4993397;28;3925;-72
2023/06/18 09:30:29;;;;;;;;;;;;;;;22.29;55.25;100987.66;4991023;28;4006;-68
2023/06/18 09:32:59;;;;;;;;;;;;;;;22.25;55.41;100988.22;4987018;28;4201;-68
2023/06/18 09:35:26;;;;;;;;;;;;;;;22.29;54.92;100985.50;4986518;28;4228;-70
2023/06/18 09:37:53;;;;;;;;;;;;;;;22.29;55.39;100999.19;4983420;28;4527;-68
2023/06/18 09:40:20;;;;;;;;;;;;;;;22.26;54.87;100991.84;4985518;28;4340;-68
2023/06/18 09:42:48;;;;;;;;;;;;;;;22.26;54.85;100988.94;4989264;28;4192;-68
2023/06/18 09:45:15;;;;;;;;;;;;;;;22.21;54.84;100987.28;4986810;28;4055;-68
2023/06/18 09:47:43;;;;;;;;;;;;;;;22.23;54.90;100984.50;4987927;28;4153;-68
2023/06/18 09:50:10;;;;;;;;;;;;;;;22.29;54.69;100987.66;4984737;28;4156;-68
2023/06/18 09:52:43;;;;;;;;;;;;;;;22.34;54.20;100987.16;4988279;28;4112;-68
2023/06/18 09:55:28;;;;;;;;;;;;;;;22.37;53.99;100982.94;5002615;28;4250;-68
2023/06/18 09:57:55;;;;;;;;;;;;;;;22.37;54.40;100980.03;4987703;28;4424;-68
2023/06/18 10:00:22;;;;;;;;;;;;;;;22.37;54.76;100976.41;4989955;28;4120;-69
2023/06/18 10:02:49;;;;;;;;;;;;;;;22.38;54.53;100983.69;4988266;28;4105;-70
2023/06/18 10:05:16;;;;;;;;;;;;;;;22.37;54.98;100987.97;4982109;28;4192;-70
2023/06/18 10:07:42;;;;;;;;;;;;;;;22.37;54.58;100977.16;4985577;28;4042;-69
2023/06/18 10:10:15;;;;;;;;;;;;;;;22.38;53.98;100978.66;4986974;28;4114;-69
2023/06/18 10:12:42;;;;;;;;;;;;;;;22.36;54.17;100974.94;4989506;28;3996;-70
2023/06/18 10:15:15;;;;;;;;;;;;;;;22.37;53.89;100979.31;4985224;28;4129;-68
2023/06/18 10:17:43;;;;;;;;;;;;;;;22.37;54.29;100976.41;4985764;28;4053;-69
2023/06/18 10:20:10;;;;;;;;;;;;;;;22.32;53.73;100980.56;4982352;28;4407;-69
2023/06/18 10:22:40;;;;;;;;;;;;;;;22.40;52.72;100980.13;4995963;28;4050;-69
2023/06/18 10:25:06;;;;;;;;;;;;;;;22.41;52.10;100988.13;5001319;28;4164;-69
2023/06/18 10:27:33;;;;;;;;;;;;;;;22.41;52.46;100988.13;4989983;28;4136;-69
2023/06/18 10:29:59;;;;;;;;;;;;;;;22.38;53.02;100981.53;4986645;28;4186;-69
2023/06/18 10:32:26;;;;;;;;;;;;;;;22.42;53.88;100975.16;4986578;28;4164;-69
2023/06/18 10:34:53;;;;;;;;;;;;;;;22.40;53.75;100980.13;4984475;28;4167;-69
2023/06/18 10:37:19;;;;;;;;;;;;;;;22.42;54.07;100978.06;4985371;28;4528;-69
2023/06/18 10:39:48;;;;;;;;;;;;;;;22.44;53.79;100981.03;4985129;28;4211;-69
2023/06/18 10:42:15;;;;;;;;;;;;;;;22.43;54.01;100973.78;4983712;28;5103;-69
2023/06/18 10:44:49;;;;;;;;;;;;;;;22.42;53.91;100978.06;4987241;28;4168;-69
2023/06/18 10:47:20;;;;;;;;;;;;;;;22.43;53.78;100978.81;4986478;28;5090;-69
2023/06/18 10:50:01;;;;;;;;;;;;;;;22.42;53.88;100978.06;4991994;28;4162;-69
2023/06/18 10:52:32;;;;;;;;;;;;;;;22.41;53.18;100973.69;4989771;28;4067;-69
2023/06/18 10:55:04;;;;;;;;;;;;;;;22.40;52.79;100983.75;4987443;28;4042;-69
2023/06/18 10:57:31;;;;;;;;;;;;;;;22.41;52.26;100979.47;4989655;28;4223;-69
2023/06/18 10:59:57;;;;;;;;;;;;;;;22.42;52.39;100972.28;4989271;28;4099;-69
2023/06/18 11:02:33;;;;;;;;;;;;;;;22.44;52.83;100966.59;4985893;28;4109;-70
2023/06/18 11:05:00;;;;;;;;;;;;;;;22.46;52.21;100965.94;4987263;28;4083;-69
2023/06/18 11:07:27;;;;;;;;;;;;;;;22.49;52.55;100962.47;4990740;28;4116;-70
2023/06/18 11:09:58;;;;;;;;;;;;;;;22.48;52.65;100963.88;4990383;28;4165;-69
2023/06/18 11:12:28;;;;;;;;;;;;;;;22.46;53.69;100960.91;4989710;28;3982;-68
2023/06/18 11:15:26;;;;;;;;;;;;;;;22.51;53.26;100956.78;4984582;28;4383;-69
2023/06/18 11:17:53;;;;;;;;;;;;;;;22.53;53.94;100953.97;4953497;28;4066;-68
2023/06/18 11:20:20;;;;;;;;;;;;;;;22.69;50.14;100958.91;4984984;28;4559;-68
2023/06/18 11:22:47;;;;;;;;;;;;;;;22.69;49.80;100959.63;4986750;28;4067;-68
2023/06/18 11:25:14;;;;;;;;;;;;;;;22.68;50.06;100948.78;4982077;28;4315;-68
2023/06/18 11:27:41;;;;;;;;;;;;;;;22.60;50.78;100952.06;5002527;28;4047;-68
2023/06/18 11:30:08;;;;;;;;;;;;;;;22.65;51.96;100941.41;4987886;28;4143;-69
2023/06/18 11:32:38;;;;;;;;;;;;;;;22.72;50.70;100948.91;4986154;28;4124;-69
2023/06/18 11:35:05;;;;;;;;;;;;;;;22.88;49.41;100946.63;4985709;28;5156;-69
2023/06/18 11:37:31;;;;;;;;;;;;;;;22.78;50.20;100943.38;4986492;28;4314;-69
2023/06/18 11:39:58;;;;;;;;;;;;;;;22.73;51.22;100947.50;4985700;28;4228;-66
2023/06/18 11:42:27;;;;;;;;;;;;;;;22.69;51.79;100950.97;5000491;28;4043;-67
2023/06/18 11:44:54;;;;;;;;;;;;;;;22.71;52.55;100944.53;4987255;28;4252;-66
2023/06/18 11:47:20;;;;;;;;;;;;;;;22.69;52.78;100939.44;4986318;28;4142;-66
2023/06/18 11:49:48;;;;;;;;;;;;;;;22.69;53.11;100935.81;4986013;28;4237;-73
2023/06/18 11:52:15;;;;;;;;;;;;;;;22.71;53.50;100935.88;4984348;28;4170;-67
2023/06/18 11:54:42;;;;;;;;;;;;;;;22.81;53.57;100930.47;4991430;28;4397;-67
2023/06/18 11:57:15;;;;;;;;;;;;;;;22.78;53.68;100934.72;4984411;28;4390;-67
2023/06/18 11:59:41;;;;;;;;;;;;;;;22.92;51.87;100934.50;4982623;28;4191;-66
2023/06/18 12:02:09;;;;;;;;;;;;;;;23.04;52.42;100937.13;4981869;28;4375;-64
2023/06/18 12:04:36;;;;;;;;;;;;;;;22.98;53.94;100935.47;4980657;28;4144;-64
2023/06/18 12:07:02;;;;;;;;;;;;;;;23.41;48.79;100928.34;4986171;28;4446;-64
2023/06/18 12:09:33;;;;;;;;;;;;;;;23.77;47.16;100925.25;4986664;28;4155;-65
2023/06/18 12:12:08;;;;;;;;;;;;;;;23.77;46.01;100931.03;4984751;28;4155;-65
2023/06/18 12:14:48;;;;;;;;;;;;;;;23.44;49.62;100931.31;4990681;28;4183;-65
2023/06/18 12:17:33;;;;;;;;;;;;;;;23.48;45.79;100928.56;4984524;28;4356;-65
2023/06/18 12:20:03;;;;;;;;;;;;;;;23.35;48.56;100933.91;4984701;28;4129;-67
2023/06/18 12:22:29;;;;;;;;;;;;;;;23.11;50.19;100933.03;4985402;28;4151;-67
2023/06/18 12:24:56;;;;;;;;;;;;;;;23.04;50.69;100928.44;4985681;28;4202;-66
2023/06/18 12:27:24;;;;;;;;;;;;;;;22.97;51.41;100933.97;4984780;28;4205;-67
2023/06/18 12:29:52;;;;;;;;;;;;;;;22.92;51.82;100935.22;4998617;28;4016;-67
2023/06/18 12:32:18;;;;;;;;;;;;;;;22.90;52.17;100940.94;5001052;28;4186;-67
2023/06/18 12:34:45;;;;;;;;;;;;;;;22.85;52.48;100930.63;4985538;28;4017;-67
2023/06/18 12:37:11;;;;;;;;;;;;;;;22.85;52.84;100936.41;4990256;28;4154;-67
2023/06/18 12:39:37;;;;;;;;;;;;;;;22.83;52.91;100926.94;4998308;28;4205;-67
2023/06/18 12:42:08;;;;;;;;;;;;;;;22.87;53.14;100932.88;4980846;28;4129;-66
2023/06/18 12:44:34;;;;;;;;;;;;;;;22.86;52.95;100923.47;4989074;28;4297;-67
2023/06/18 12:47:02;;;;;;;;;;;;;;;22.88;53.11;100929.31;5002415;28;4050;-69
2023/06/18 12:49:36;;;;;;;;;;;;;;;22.83;53.49;100921.91;4999820;28;4033;-66
2023/06/18 12:52:03;;;;;;;;;;;;;;;22.85;53.58;100921.25;4985806;28;4061;-67